createdAt,value
2018-12-22T00:00:33.938Z,11.64
2018-12-22T00:03:03.351Z,11.39
2018-12-22T00:05:32.651Z,11.48
2018-12-22T00:08:01.923Z,11.29
2018-12-22T00:10:31.444Z,10.98
2018-12-22T00:13:00.985Z,10.88
2018-12-22T00:15:30.185Z,11.12
2018-12-22T00:17:59.860Z,11.66
2018-12-22T00:20:32.204Z,11.14
2018-12-22T00:23:01.362Z,10.76
2018-12-22T00:25:30.531Z,11.18
2018-12-22T00:27:59.986Z,11.86
2018-12-22T00:30:29.281Z,11.32
2018-12-22T00:32:58.428Z,11.45
2018-12-22T00:35:27.783Z,11.35
2018-12-22T00:37:56.996Z,11.78
2018-12-22T00:40:26.139Z,11.02
2018-12-22T00:42:55.631Z,11.50
2018-12-22T00:45:25.184Z,11.74
2018-12-22T00:47:54.545Z,11.54
2018-12-22T00:50:23.668Z,12.05
2018-12-22T00:52:52.801Z,11.73
2018-12-22T00:55:22.245Z,12.01
2018-12-22T00:57:51.965Z,11.73
2018-12-22T01:00:21.162Z,11.06
2018-12-22T01:02:50.452Z,11.60
2018-12-22T01:05:19.642Z,11.54
2018-12-22T01:07:48.816Z,11.67
2018-12-22T01:10:18.007Z,11.47
2018-12-22T01:12:47.516Z,11.60
2018-12-22T01:15:16.656Z,11.10
2018-12-22T01:17:46.120Z,11.57
2018-12-22T01:20:15.363Z,11.53
2018-12-22T01:22:44.729Z,11.04
2018-12-22T01:25:13.854Z,11.02
2018-12-22T01:27:43.420Z,11.19
2018-12-22T01:30:12.974Z,11.09
2018-12-22T01:32:42.640Z,10.92
2018-12-22T01:35:11.804Z,11.05
2018-12-22T01:37:41.257Z,11.35
2018-12-22T01:40:10.439Z,11.55
2018-12-22T01:42:40.128Z,11.31
2018-12-22T01:45:15.819Z,11.13
2018-12-22T01:47:45.636Z,11.12
2018-12-22T01:50:14.861Z,10.88
2018-12-22T01:52:44.368Z,11.05
2018-12-22T01:55:13.932Z,10.62
2018-12-22T01:57:43.066Z,11.36
2018-12-22T02:00:12.585Z,11.04
2018-12-22T02:02:42.146Z,10.80
2018-12-22T02:05:11.465Z,11.00
2018-12-22T02:07:40.842Z,11.07
2018-12-22T02:10:09.946Z,11.24
2018-12-22T02:12:39.259Z,11.23
2018-12-22T02:15:08.817Z,10.85
2018-12-22T02:17:37.951Z,10.97
2018-12-22T02:20:07.702Z,10.56
2018-12-22T02:22:37.103Z,10.75
2018-12-22T02:25:06.469Z,11.07
2018-12-22T02:27:35.849Z,10.95
2018-12-22T02:30:05.251Z,11.01
2018-12-22T02:32:34.785Z,10.87
2018-12-22T02:35:04.292Z,10.94
2018-12-22T02:37:33.698Z,11.30
2018-12-22T02:40:02.864Z,10.93
2018-12-22T02:42:32.603Z,10.71
2018-12-22T02:45:01.951Z,11.00
2018-12-22T02:47:31.096Z,11.53
2018-12-22T02:50:00.655Z,11.44
2018-12-22T02:52:30.105Z,11.19
2018-12-22T02:54:59.720Z,10.86
2018-12-22T02:57:28.863Z,10.93
2018-12-22T02:59:58.276Z,10.90
2018-12-22T03:02:27.393Z,10.96
2018-12-22T03:04:56.680Z,11.07
2018-12-22T03:07:25.881Z,11.19
2018-12-22T03:09:55.284Z,11.04
2018-12-22T03:12:25.077Z,11.23
2018-12-22T03:14:54.439Z,10.84
2018-12-22T03:17:23.892Z,11.01
2018-12-22T03:19:53.189Z,10.96
2018-12-22T03:22:22.352Z,11.22
2018-12-22T03:24:52.094Z,10.89
2018-12-22T03:27:21.247Z,11.03
2018-12-22T03:29:50.498Z,10.74
2018-12-22T03:32:19.854Z,10.70
2018-12-22T03:34:49.120Z,10.95
2018-12-22T03:37:18.309Z,10.63
2018-12-22T03:39:47.533Z,10.38
2018-12-22T03:42:16.681Z,10.41
2018-12-22T03:44:45.901Z,10.28
2018-12-22T03:47:15.294Z,10.60
2018-12-22T03:49:44.680Z,10.09
2018-12-22T03:52:14.409Z,10.26
2018-12-22T03:54:43.751Z,10.63
2018-12-22T03:57:13.164Z,10.31
2018-12-22T03:59:42.579Z,10.33
2018-12-22T04:02:11.707Z,10.60
2018-12-22T04:04:40.978Z,10.48
2018-12-22T04:07:10.173Z,10.65
2018-12-22T04:09:39.401Z,10.66
2018-12-22T04:12:08.910Z,10.49
2018-12-22T04:14:38.447Z,10.69
2018-12-22T04:17:07.520Z,10.70
2018-12-22T04:19:36.995Z,10.55
2018-12-22T04:22:06.194Z,11.11
2018-12-22T04:24:35.486Z,10.90
2018-12-22T04:27:05.036Z,10.54
2018-12-22T04:29:34.466Z,10.44
2018-12-22T04:32:03.941Z,10.35
2018-12-22T04:34:33.304Z,10.28
2018-12-22T04:37:02.434Z,10.19
2018-12-22T04:39:31.616Z,10.36
2018-12-22T04:42:00.847Z,10.60
2018-12-22T04:44:30.141Z,10.60
2018-12-22T04:46:59.227Z,10.81
2018-12-22T04:49:28.830Z,11.04
2018-12-22T04:51:58.261Z,10.78
2018-12-22T04:54:27.376Z,10.51
2018-12-22T04:56:56.545Z,10.53
2018-12-22T04:59:26.021Z,10.91
2018-12-22T05:01:55.106Z,11.13
2018-12-22T05:04:24.819Z,10.95
2018-12-22T05:06:53.948Z,10.75
2018-12-22T05:09:23.152Z,11.19
2018-12-22T05:11:52.838Z,10.96
2018-12-22T05:14:22.052Z,10.48
2018-12-22T05:16:51.588Z,10.63
2018-12-22T05:19:20.752Z,11.01
2018-12-22T05:21:50.168Z,10.49
2018-12-22T05:24:19.288Z,11.06
2018-12-22T05:26:48.628Z,11.12
2018-12-22T05:29:17.749Z,10.56
2018-12-22T05:31:47.084Z,10.53
2018-12-22T05:34:16.219Z,10.49
2018-12-22T05:36:45.788Z,10.76
2018-12-22T05:39:15.102Z,10.56
2018-12-22T05:41:44.432Z,10.55
2018-12-22T05:44:13.945Z,10.60
2018-12-22T05:46:43.067Z,10.78
2018-12-22T05:49:12.429Z,10.86
2018-12-22T05:51:41.883Z,10.51
2018-12-22T05:54:11.273Z,10.75
2018-12-22T05:56:41.053Z,11.00
2018-12-22T05:59:10.604Z,10.63
2018-12-22T06:01:39.740Z,10.88
2018-12-22T06:04:09.467Z,10.92
2018-12-22T06:06:38.613Z,11.06
2018-12-22T06:09:07.861Z,11.21
2018-12-22T06:11:37.180Z,10.78
2018-12-22T06:14:06.264Z,11.04
2018-12-22T06:16:35.532Z,10.97
2018-12-22T06:19:04.681Z,10.65
2018-12-22T06:21:34.359Z,10.87
2018-12-22T06:24:03.508Z,10.36
2018-12-22T06:26:32.943Z,10.85
2018-12-22T06:29:02.300Z,10.34
2018-12-22T06:31:31.552Z,10.60
2018-12-22T06:34:00.719Z,10.98
2018-12-22T06:36:30.157Z,10.91
2018-12-22T06:38:59.690Z,11.00
2018-12-22T06:41:29.093Z,11.03
2018-12-22T06:43:58.509Z,11.32
2018-12-22T06:46:27.643Z,11.22
2018-12-22T06:48:57.139Z,10.84
2018-12-22T06:51:26.700Z,10.88
2018-12-22T06:53:56.309Z,10.52
2018-12-22T06:56:25.546Z,10.59
2018-12-22T06:58:54.792Z,10.81
2018-12-22T07:01:24.233Z,10.65
2018-12-22T07:03:53.349Z,10.65
2018-12-22T07:06:22.566Z,10.85
2018-12-22T07:08:52.060Z,10.93
2018-12-22T07:11:21.186Z,10.93
2018-12-22T07:13:50.536Z,10.52
2018-12-22T07:16:20.056Z,10.74
2018-12-22T07:18:49.563Z,10.73
2018-12-22T07:21:18.612Z,10.26
2018-12-22T07:23:47.943Z,10.22
2018-12-22T07:26:17.110Z,10.52
2018-12-22T07:28:46.243Z,10.85
2018-12-22T07:31:16.149Z,11.05
2018-12-22T07:33:45.590Z,11.09
2018-12-22T07:36:14.747Z,10.99
2018-12-22T07:38:43.916Z,10.74
2018-12-22T07:41:13.072Z,10.59
2018-12-22T07:46:19.059Z,10.71
2018-12-22T07:48:48.460Z,10.83
2018-12-22T07:51:17.604Z,10.73
2018-12-22T07:53:47.199Z,10.54
2018-12-22T07:56:16.356Z,10.84
2018-12-22T07:58:46.068Z,10.93
2018-12-22T08:01:15.154Z,10.62
2018-12-22T08:03:44.247Z,10.79
2018-12-22T08:06:13.373Z,10.83
2018-12-22T08:08:42.694Z,10.28
2018-12-22T08:11:12.204Z,10.44
2018-12-22T08:13:41.671Z,10.37
2018-12-22T08:16:10.841Z,10.22
2018-12-22T08:18:40.188Z,9.97
2018-12-22T08:21:09.556Z,9.82
2018-12-22T08:23:38.837Z,9.98
2018-12-22T08:26:07.981Z,10.03
2018-12-22T08:28:37.262Z,9.98
2018-12-22T08:31:06.411Z,10.07
2018-12-22T08:33:35.552Z,9.94
2018-12-22T08:36:04.837Z,10.26
2018-12-22T08:38:33.989Z,10.22
2018-12-22T08:41:03.189Z,9.86
2018-12-22T08:43:32.330Z,9.79
2018-12-22T08:46:01.832Z,10.02
2018-12-22T08:48:31.007Z,9.88
2018-12-22T08:51:02.639Z,9.96
2018-12-22T08:53:31.718Z,10.23
2018-12-22T08:56:00.964Z,10.24
2018-12-22T08:58:30.116Z,10.52
2018-12-22T09:00:59.578Z,10.64
2018-12-22T09:03:28.722Z,10.00
2018-12-22T09:05:58.405Z,10.46
2018-12-22T09:08:27.829Z,10.26
2018-12-22T09:10:57.323Z,10.02
2018-12-22T09:13:26.421Z,9.88
2018-12-22T09:15:55.588Z,9.95
2018-12-22T09:18:25.077Z,10.38
2018-12-22T09:20:54.413Z,10.22
2018-12-22T09:23:23.849Z,10.09
2018-12-22T09:25:52.892Z,10.24
2018-12-22T09:28:22.123Z,10.10
2018-12-22T09:30:51.715Z,10.11
2018-12-22T09:33:21.264Z,9.78
2018-12-22T09:35:50.768Z,9.94
2018-12-22T09:38:21.087Z,9.96
2018-12-22T09:40:50.594Z,9.57
2018-12-22T09:43:20.049Z,9.97
2018-12-22T09:45:49.184Z,9.64
2018-12-22T09:48:18.659Z,9.68
2018-12-22T09:50:48.361Z,9.48
2018-12-22T09:53:17.710Z,9.43
2018-12-22T09:55:47.129Z,8.93
2018-12-22T09:58:16.464Z,8.85
2018-12-22T10:00:45.665Z,9.15
2018-12-22T10:05:52.103Z,8.97
2018-12-22T10:08:21.257Z,8.79
2018-12-22T10:10:50.408Z,8.98
2018-12-22T10:13:19.567Z,8.59
2018-12-22T10:15:48.817Z,8.59
2018-12-22T10:18:18.229Z,8.79
2018-12-22T10:20:47.424Z,8.60
2018-12-22T10:23:16.855Z,8.57
2018-12-22T10:25:46.200Z,8.54
2018-12-22T10:28:15.527Z,8.57
2018-12-22T10:30:44.663Z,8.33
2018-12-22T10:33:13.969Z,8.87
2018-12-22T10:35:43.324Z,8.81
2018-12-22T10:38:12.692Z,8.60
2018-12-22T10:40:42.076Z,8.90
2018-12-22T10:43:11.236Z,8.82
2018-12-22T10:45:40.576Z,8.60
2018-12-22T10:48:09.724Z,8.37
2018-12-22T10:50:39.176Z,8.46
2018-12-22T10:53:08.657Z,8.79
2018-12-22T10:55:37.837Z,8.77
2018-12-22T10:58:07.597Z,8.89
2018-12-22T11:00:37.058Z,8.59
2018-12-22T11:03:06.193Z,8.69
2018-12-22T11:05:35.564Z,8.66
2018-12-22T11:08:04.789Z,8.84
2018-12-22T11:10:34.181Z,8.57
2018-12-22T11:13:03.674Z,9.04
2018-12-22T11:15:32.916Z,9.04
2018-12-22T11:18:02.421Z,9.09
2018-12-22T11:20:31.556Z,8.86
2018-12-22T11:23:01.061Z,9.21
2018-12-22T11:25:30.567Z,9.01
2018-12-22T11:28:00.156Z,8.94
2018-12-22T11:30:39.064Z,8.99
2018-12-22T11:33:08.352Z,8.69
2018-12-22T11:35:37.560Z,8.92
2018-12-22T11:38:07.698Z,8.74
2018-12-22T11:40:37.493Z,8.70
2018-12-22T11:43:06.951Z,8.64
2018-12-22T11:45:36.432Z,8.59
2018-12-22T11:48:29.447Z,8.67
2018-12-22T11:50:58.782Z,8.90
2018-12-22T11:53:28.034Z,8.84
2018-12-22T11:55:57.762Z,8.69
2018-12-22T11:58:27.647Z,8.76
2018-12-22T12:00:56.884Z,8.61
2018-12-22T12:03:26.286Z,8.59
2018-12-22T12:05:55.592Z,8.39
2018-12-22T12:08:25.005Z,8.30
2018-12-22T12:10:54.457Z,8.12
2018-12-22T12:13:23.626Z,8.10
2018-12-22T12:16:02.348Z,8.26
2018-12-22T12:19:44.061Z,8.13
2018-12-22T12:22:13.215Z,7.98
2018-12-22T12:24:42.642Z,8.05
2018-12-22T12:27:11.802Z,7.83
2018-12-22T12:29:40.924Z,8.09
2018-12-22T12:32:10.040Z,7.97
2018-12-22T12:34:39.580Z,8.16
2018-12-22T12:37:09.026Z,8.22
2018-12-22T12:39:38.356Z,8.43
2018-12-22T12:42:07.790Z,8.23
2018-12-22T12:44:42.281Z,8.01
2018-12-22T12:47:12.052Z,7.68
2018-12-22T12:49:41.222Z,7.48
2018-12-22T12:52:10.813Z,7.82
2018-12-22T12:54:39.988Z,8.38
2018-12-22T12:57:09.136Z,7.99
2018-12-22T12:59:38.508Z,7.97
2018-12-22T13:02:09.145Z,8.01
2018-12-22T13:04:38.255Z,8.40
2018-12-22T13:07:07.659Z,7.93
2018-12-22T13:09:37.134Z,7.92
2018-12-22T13:12:14.603Z,8.12
2018-12-22T13:14:46.890Z,7.87
2018-12-22T13:17:16.230Z,8.18
2018-12-22T13:19:45.689Z,8.58
2018-12-22T13:22:15.021Z,8.14
2018-12-22T13:24:45.072Z,7.78
2018-12-22T13:27:15.184Z,7.87
2018-12-22T13:29:44.764Z,8.12
2018-12-22T13:32:14.172Z,9.98
2018-12-22T13:34:45.240Z,8.81
2018-12-22T13:37:14.641Z,9.77
2018-12-22T13:39:44.257Z,8.96
2018-12-22T13:42:13.545Z,8.31
2018-12-22T13:44:42.918Z,8.48
2018-12-22T13:47:12.094Z,8.22
2018-12-22T13:50:45.451Z,7.94
2018-12-22T13:53:15.340Z,7.60
2018-12-22T13:55:44.598Z,8.04
2018-12-22T13:58:13.831Z,8.16
2018-12-22T14:00:47.456Z,8.20
2018-12-22T14:03:22.382Z,7.66
2018-12-22T14:05:51.731Z,7.57
2018-12-22T14:08:21.429Z,7.89
2018-12-22T14:10:50.904Z,8.09
2018-12-22T14:13:20.352Z,8.14
2018-12-22T14:15:57.000Z,8.17
2018-12-22T14:18:35.628Z,8.13
2018-12-22T14:21:04.831Z,7.78
2018-12-22T14:23:54.252Z,7.69
2018-12-22T14:29:02.750Z,7.85
2018-12-22T14:31:32.004Z,7.82
2018-12-22T14:34:09.542Z,8.04
2018-12-22T14:36:39.076Z,7.93
2018-12-22T14:39:09.776Z,7.99
2018-12-22T14:41:39.115Z,8.04
2018-12-22T14:44:08.269Z,7.96
2018-12-22T14:46:37.391Z,7.76
2018-12-22T14:49:07.054Z,8.14
2018-12-22T14:51:36.218Z,8.19
2018-12-22T14:54:05.490Z,8.51
2018-12-22T14:56:41.816Z,8.51
2018-12-22T14:59:14.136Z,8.37
2018-12-22T15:01:43.901Z,7.95
2018-12-22T15:06:51.912Z,8.09
2018-12-22T15:09:21.533Z,8.73
2018-12-22T15:11:50.916Z,8.94
2018-12-22T15:14:20.144Z,8.88
2018-12-22T15:16:49.577Z,8.43
2018-12-22T15:19:18.730Z,8.79
2018-12-22T15:21:54.297Z,8.91
2018-12-22T15:24:23.464Z,8.98
2018-12-22T15:26:52.674Z,8.93
2018-12-22T15:29:21.796Z,8.88
2018-12-22T15:31:51.144Z,8.86
2018-12-22T15:34:20.857Z,8.47
2018-12-22T15:36:50.020Z,8.18
2018-12-22T15:39:19.375Z,8.37
2018-12-22T15:41:48.507Z,8.46
2018-12-22T15:44:18.078Z,8.55
2018-12-22T15:46:47.228Z,8.72
2018-12-22T15:49:18.476Z,8.55
2018-12-22T15:51:47.612Z,8.75
2018-12-22T15:54:16.767Z,8.38
2018-12-22T15:56:45.892Z,8.75
2018-12-22T15:59:14.977Z,9.10
2018-12-22T16:01:44.200Z,9.21
2018-12-22T16:04:13.537Z,9.12
2018-12-22T16:06:43.222Z,9.24
2018-12-22T16:09:12.821Z,9.09
2018-12-22T16:11:42.165Z,9.22
2018-12-22T16:14:11.315Z,9.11
2018-12-22T16:16:41.036Z,8.96
2018-12-22T16:19:10.483Z,8.92
2018-12-22T16:21:39.607Z,9.20
2018-12-22T16:24:09.248Z,8.81
2018-12-22T16:26:38.505Z,8.94
2018-12-22T16:29:14.272Z,9.14
2018-12-22T16:31:43.485Z,9.23
2018-12-22T16:34:13.050Z,9.31
2018-12-22T16:36:42.312Z,9.08
2018-12-22T16:39:11.864Z,9.02
2018-12-22T16:41:41.072Z,9.10
2018-12-22T16:44:15.608Z,9.08
2018-12-22T16:46:45.114Z,9.20
2018-12-22T16:49:14.632Z,9.21
2018-12-22T16:51:44.238Z,9.10
2018-12-22T16:54:13.443Z,9.00
2018-12-22T16:56:42.986Z,9.18
2018-12-22T16:59:12.201Z,9.22
2018-12-22T17:01:49.617Z,9.15
2018-12-22T17:04:19.184Z,9.12
2018-12-22T17:06:48.586Z,9.02
2018-12-22T17:09:17.809Z,8.98
2018-12-22T17:11:47.285Z,9.23
2018-12-22T17:14:16.712Z,9.34
2018-12-22T17:16:47.056Z,9.35
2018-12-22T17:19:16.760Z,9.42
2018-12-22T17:21:57.190Z,9.40
2018-12-22T17:24:43.551Z,9.34
2018-12-22T17:27:12.965Z,9.38
2018-12-22T17:29:42.469Z,9.39
2018-12-22T17:32:12.313Z,9.45
2018-12-22T17:34:41.534Z,9.29
2018-12-22T17:37:10.781Z,9.23
2018-12-22T17:39:39.905Z,9.35
2018-12-22T17:42:09.053Z,9.33
2018-12-22T17:44:38.225Z,9.28
2018-12-22T17:47:07.406Z,9.27
2018-12-22T17:49:37.301Z,9.20
2018-12-22T17:52:06.444Z,9.34
2018-12-22T17:54:35.981Z,9.20
2018-12-22T17:57:05.358Z,9.18
2018-12-22T17:59:34.477Z,9.30
2018-12-22T18:02:03.806Z,9.08
2018-12-22T18:04:33.223Z,9.25
2018-12-22T18:07:02.357Z,9.24
2018-12-22T18:09:31.741Z,9.44
2018-12-22T18:12:01.362Z,9.31
2018-12-22T18:14:30.494Z,9.44
2018-12-22T18:16:59.645Z,9.41
2018-12-22T18:19:29.292Z,9.02
2018-12-22T18:21:58.587Z,9.53
2018-12-22T18:24:28.331Z,9.47
2018-12-22T18:26:57.485Z,9.40
2018-12-22T18:29:26.813Z,9.47
2018-12-22T18:31:56.229Z,9.29
2018-12-22T18:34:25.464Z,9.47
2018-12-22T18:36:55.014Z,9.48
2018-12-22T18:39:24.234Z,9.45
2018-12-22T18:41:53.727Z,7.85
2018-12-22T18:44:22.863Z,8.64
2018-12-22T18:46:52.208Z,9.42
2018-12-22T18:49:21.343Z,9.46
2018-12-22T18:51:50.696Z,8.39
2018-12-22T18:54:19.890Z,9.06
2018-12-22T18:56:49.067Z,9.28
2018-12-22T18:59:19.102Z,9.25
2018-12-22T19:01:48.286Z,9.08
2018-12-22T19:04:17.469Z,9.05
2018-12-22T19:06:46.684Z,9.31
2018-12-22T19:09:25.129Z,9.14
2018-12-22T19:11:54.476Z,9.10
2018-12-22T19:14:23.656Z,8.96
2018-12-22T19:16:53.108Z,8.92
2018-12-22T19:19:22.316Z,9.16
2018-12-22T19:21:51.792Z,9.20
2018-12-22T19:24:21.539Z,9.03
2018-12-22T19:26:50.752Z,9.14
2018-12-22T19:29:19.867Z,9.21
2018-12-22T19:31:49.082Z,9.20
2018-12-22T19:34:18.564Z,9.22
2018-12-22T19:36:47.666Z,9.19
2018-12-22T19:39:17.080Z,9.28
2018-12-22T19:41:46.737Z,9.14
2018-12-22T19:44:16.478Z,9.18
2018-12-22T19:46:45.868Z,9.30
2018-12-22T19:49:15.742Z,9.07
2018-12-22T19:51:45.682Z,8.92
2018-12-22T19:54:15.018Z,9.16
2018-12-22T19:56:44.305Z,9.11
2018-12-22T19:59:13.718Z,9.36
2018-12-22T20:01:43.776Z,9.43
2018-12-22T20:04:14.221Z,9.12
2018-12-22T20:06:43.828Z,9.19
2018-12-22T20:09:13.041Z,8.70
2018-12-22T20:11:42.250Z,8.73
2018-12-22T20:14:12.235Z,8.84
2018-12-22T20:16:42.510Z,8.95
2018-12-22T20:19:11.938Z,8.96
2018-12-22T20:21:47.398Z,8.81
2018-12-22T20:24:17.084Z,9.27
2018-12-22T20:26:46.973Z,9.37
2018-12-22T20:29:16.321Z,9.40
2018-12-22T20:31:46.148Z,9.33
2018-12-22T20:34:15.307Z,9.18
2018-12-22T20:36:44.709Z,9.03
2018-12-22T20:39:14.682Z,9.27
2018-12-22T20:41:43.979Z,9.23
2018-12-22T20:44:13.220Z,9.20
2018-12-22T20:46:42.370Z,9.37
2018-12-22T20:49:12.585Z,9.28
2018-12-22T20:51:42.124Z,9.25
2018-12-22T20:54:11.321Z,9.32
2018-12-22T20:56:40.594Z,9.24
2018-12-22T20:59:09.996Z,9.30
2018-12-22T21:01:39.498Z,9.30
2018-12-22T21:04:08.889Z,9.23
2018-12-22T21:06:38.720Z,9.16
2018-12-22T21:09:08.589Z,9.14
2018-12-22T21:11:37.729Z,9.10
2018-12-22T21:14:07.211Z,9.27
2018-12-22T21:16:36.679Z,9.22
2018-12-22T21:19:05.970Z,9.21
2018-12-22T21:21:35.332Z,9.14
2018-12-22T21:24:04.762Z,9.13
2018-12-22T21:26:33.914Z,9.23
2018-12-22T21:29:03.393Z,9.23
2018-12-22T21:31:32.791Z,9.16
2018-12-22T21:34:02.466Z,9.10
2018-12-22T21:36:31.996Z,8.82
2018-12-22T21:39:01.472Z,8.68
2018-12-22T21:41:30.814Z,8.99
2018-12-22T21:43:59.893Z,8.98
2018-12-22T21:46:29.044Z,9.01
2018-12-22T21:48:58.577Z,8.86
2018-12-22T21:51:27.797Z,9.05
2018-12-22T21:53:57.065Z,9.09
2018-12-22T21:56:26.488Z,8.70
2018-12-22T21:58:55.670Z,9.03
2018-12-22T22:01:25.270Z,9.20
2018-12-22T22:03:54.667Z,9.23
2018-12-22T22:06:26.708Z,8.99
2018-12-22T22:08:56.039Z,8.80
2018-12-22T22:11:25.203Z,8.86
2018-12-22T22:13:54.353Z,9.07
2018-12-22T22:16:23.765Z,9.13
2018-12-22T22:18:52.953Z,9.08
2018-12-22T22:21:22.917Z,8.98
2018-12-22T22:23:52.543Z,8.96
2018-12-22T22:26:22.141Z,9.03
2018-12-22T22:28:51.314Z,9.09
2018-12-22T22:31:20.645Z,9.05
2018-12-22T22:33:49.797Z,9.04
2018-12-22T22:36:18.932Z,8.93
2018-12-22T22:38:48.131Z,8.94
2018-12-22T22:41:17.525Z,8.98
2018-12-22T22:43:47.393Z,8.92
2018-12-22T22:46:16.991Z,8.87
2018-12-22T22:48:46.161Z,8.88
2018-12-22T22:51:15.448Z,8.75
2018-12-22T22:53:44.881Z,8.83
2018-12-22T22:56:14.286Z,8.81
2018-12-22T22:58:44.025Z,8.84
2018-12-22T23:01:13.173Z,8.87
2018-12-22T23:03:42.418Z,8.94
2018-12-22T23:06:11.629Z,8.91
2018-12-22T23:08:41.113Z,8.93
2018-12-22T23:11:10.252Z,8.94
2018-12-22T23:13:39.523Z,8.86
2018-12-22T23:16:08.680Z,8.84
2018-12-22T23:18:38.041Z,8.87
2018-12-22T23:21:07.198Z,8.83
2018-12-22T23:23:36.602Z,8.68
2018-12-22T23:26:06.141Z,8.50
2018-12-22T23:28:35.401Z,8.49
2018-12-22T23:31:04.940Z,8.68
2018-12-22T23:33:34.490Z,8.71
2018-12-22T23:36:04.070Z,8.65
2018-12-22T23:38:33.157Z,8.66
2018-12-22T23:41:02.357Z,8.55
2018-12-22T23:43:31.629Z,8.67
2018-12-22T23:46:00.962Z,8.71
2018-12-22T23:48:30.871Z,8.65
2018-12-22T23:51:00.580Z,8.72
2018-12-22T23:53:29.806Z,8.48
2018-12-22T23:55:59.214Z,8.52
2018-12-22T23:58:28.634Z,8.55
